sensor_id;sensor_type;location;lat;lon;timestamp;P1;durP1;ratioP1;P2;durP2;ratioP2
49840;SDS011;35738;49.890;5.930;2023-04-24T00:01:03;5.90;;;5.28;;
49840;SDS011;35738;49.890;5.930;2023-04-24T00:03:29;6.50;;;5.80;;
49840;SDS011;35738;49.890;5.930;2023-04-24T00:05:56;8.00;;;5.97;;
49840;SDS011;35738;49.890;5.930;2023-04-24T00:08:25;6.85;;;5.18;;
49840;SDS011;35738;49.890;5.930;2023-04-24T00:10:51;8.85;;;6.45;;
49840;SDS011;35738;49.890;5.930;2023-04-24T00:13:19;6.22;;;5.63;;
49840;SDS011;35738;49.890;5.930;2023-04-24T00:15:47;7.95;;;6.55;;
49840;SDS011;35738;49.890;5.930;2023-04-24T00:18:14;7.35;;;6.55;;
49840;SDS011;35738;49.890;5.930;2023-04-24T00:20:41;7.15;;;6.45;;
49840;SDS011;35738;49.890;5.930;2023-04-24T00:23:09;7.40;;;6.10;;
49840;SDS011;35738;49.890;5.930;2023-04-24T00:25:36;7.93;;;6.22;;
49840;SDS011;35738;49.890;5.930;2023-04-24T00:28:03;9.13;;;6.68;;
49840;SDS011;35738;49.890;5.930;2023-04-24T00:30:29;9.27;;;6.88;;
49840;SDS011;35738;49.890;5.930;2023-04-24T00:32:57;9.98;;;6.63;;
49840;SDS011;35738;49.890;5.930;2023-04-24T00:35:24;10.18;;;7.15;;
49840;SDS011;35738;49.890;5.930;2023-04-24T00:37:51;8.38;;;6.10;;
49840;SDS011;35738;49.890;5.930;2023-04-24T00:40:17;9.80;;;6.60;;
49840;SDS011;35738;49.890;5.930;2023-04-24T00:42:44;8.93;;;6.28;;
49840;SDS011;35738;49.890;5.930;2023-04-24T00:45:11;10.15;;;6.63;;
49840;SDS011;35738;49.890;5.930;2023-04-24T00:47:38;8.35;;;6.32;;
49840;SDS011;35738;49.890;5.930;2023-04-24T00:50:09;9.45;;;6.75;;
49840;SDS011;35738;49.890;5.930;2023-04-24T00:52:37;9.13;;;6.88;;
49840;SDS011;35738;49.890;5.930;2023-04-24T00:55:07;8.60;;;6.57;;
49840;SDS011;35738;49.890;5.930;2023-04-24T00:57:34;8.07;;;6.50;;
49840;SDS011;35738;49.890;5.930;2023-04-24T01:00:02;7.68;;;6.15;;
49840;SDS011;35738;49.890;5.930;2023-04-24T01:02:29;9.25;;;6.57;;
49840;SDS011;35738;49.890;5.930;2023-04-24T01:04:56;11.07;;;6.47;;
49840;SDS011;35738;49.890;5.930;2023-04-24T01:07:23;8.15;;;6.68;;
49840;SDS011;35738;49.890;5.930;2023-04-24T01:09:51;8.65;;;6.50;;
49840;SDS011;35738;49.890;5.930;2023-04-24T01:12:19;9.63;;;7.03;;
49840;SDS011;35738;49.890;5.930;2023-04-24T01:14:45;9.45;;;7.55;;
49840;SDS011;35738;49.890;5.930;2023-04-24T01:17:12;10.77;;;7.20;;
49840;SDS011;35738;49.890;5.930;2023-04-24T01:19:39;9.60;;;7.30;;
49840;SDS011;35738;49.890;5.930;2023-04-24T01:22:08;10.80;;;7.63;;
49840;SDS011;35738;49.890;5.930;2023-04-24T01:24:38;11.18;;;7.80;;
49840;SDS011;35738;49.890;5.930;2023-04-24T01:27:06;14.20;;;8.15;;
49840;SDS011;35738;49.890;5.930;2023-04-24T01:29:34;12.07;;;7.97;;
49840;SDS011;35738;49.890;5.930;2023-04-24T01:32:02;11.23;;;7.72;;
49840;SDS011;35738;49.890;5.930;2023-04-24T01:34:29;13.35;;;8.82;;
49840;SDS011;35738;49.890;5.930;2023-04-24T01:36:57;11.30;;;8.60;;
49840;SDS011;35738;49.890;5.930;2023-04-24T01:39:23;11.38;;;8.25;;
49840;SDS011;35738;49.890;5.930;2023-04-24T01:41:52;14.30;;;8.45;;
49840;SDS011;35738;49.890;5.930;2023-04-24T01:44:20;16.30;;;10.07;;
49840;SDS011;35738;49.890;5.930;2023-04-24T01:46:47;16.23;;;10.00;;
49840;SDS011;35738;49.890;5.930;2023-04-24T01:49:14;14.43;;;8.73;;
49840;SDS011;35738;49.890;5.930;2023-04-24T01:51:40;13.67;;;9.40;;
49840;SDS011;35738;49.890;5.930;2023-04-24T01:54:07;15.13;;;10.17;;
49840;SDS011;35738;49.890;5.930;2023-04-24T01:56:34;19.07;;;10.87;;
49840;SDS011;35738;49.890;5.930;2023-04-24T01:59:02;14.43;;;9.80;;
49840;SDS011;35738;49.890;5.930;2023-04-24T02:01:34;14.45;;;9.95;;
49840;SDS011;35738;49.890;5.930;2023-04-24T02:04:04;16.73;;;11.27;;
49840;SDS011;35738;49.890;5.930;2023-04-24T02:06:33;14.63;;;11.23;;
49840;SDS011;35738;49.890;5.930;2023-04-24T02:08:59;18.20;;;11.40;;
49840;SDS011;35738;49.890;5.930;2023-04-24T02:11:27;18.13;;;11.00;;
49840;SDS011;35738;49.890;5.930;2023-04-24T02:13:54;15.50;;;10.90;;
49840;SDS011;35738;49.890;5.930;2023-04-24T02:16:20;17.17;;;11.23;;
49840;SDS011;35738;49.890;5.930;2023-04-24T02:18:47;19.73;;;12.30;;
49840;SDS011;35738;49.890;5.930;2023-04-24T02:21:14;20.80;;;13.90;;
49840;SDS011;35738;49.890;5.930;2023-04-24T02:23:40;17.73;;;12.97;;
49840;SDS011;35738;49.890;5.930;2023-04-24T02:26:07;21.27;;;13.17;;
49840;SDS011;35738;49.890;5.930;2023-04-24T02:28:34;22.20;;;14.60;;
49840;SDS011;35738;49.890;5.930;2023-04-24T02:31:00;22.93;;;13.20;;
49840;SDS011;35738;49.890;5.930;2023-04-24T02:33:27;19.60;;;12.53;;
49840;SDS011;35738;49.890;5.930;2023-04-24T02:35:54;24.35;;;13.77;;
49840;SDS011;35738;49.890;5.930;2023-04-24T02:38:21;22.83;;;13.45;;
49840;SDS011;35738;49.890;5.930;2023-04-24T02:40:48;24.73;;;15.10;;
49840;SDS011;35738;49.890;5.930;2023-04-24T02:43:15;23.17;;;13.98;;
49840;SDS011;35738;49.890;5.930;2023-04-24T02:45:41;24.83;;;13.43;;
49840;SDS011;35738;49.890;5.930;2023-04-24T02:48:08;23.50;;;14.73;;
49840;SDS011;35738;49.890;5.930;2023-04-24T02:54:18;24.20;;;14.07;;
49840;SDS011;35738;49.890;5.930;2023-04-24T02:56:45;23.10;;;13.40;;
49840;SDS011;35738;49.890;5.930;2023-04-24T02:59:46;19.77;;;13.20;;
49840;SDS011;35738;49.890;5.930;2023-04-24T03:03:16;22.23;;;13.53;;
49840;SDS011;35738;49.890;5.930;2023-04-24T03:05:44;27.55;;;15.30;;
49840;SDS011;35738;49.890;5.930;2023-04-24T03:08:13;28.67;;;16.25;;
49840;SDS011;35738;49.890;5.930;2023-04-24T03:10:40;23.97;;;14.23;;
49840;SDS011;35738;49.890;5.930;2023-04-24T03:13:07;25.40;;;14.95;;
49840;SDS011;35738;49.890;5.930;2023-04-24T03:15:33;23.20;;;14.77;;
49840;SDS011;35738;49.890;5.930;2023-04-24T03:18:01;27.08;;;16.35;;
49840;SDS011;35738;49.890;5.930;2023-04-24T03:20:29;26.67;;;16.53;;
49840;SDS011;35738;49.890;5.930;2023-04-24T03:22:56;25.80;;;14.90;;
49840;SDS011;35738;49.890;5.930;2023-04-24T03:25:23;25.20;;;15.15;;
49840;SDS011;35738;49.890;5.930;2023-04-24T03:27:52;25.13;;;15.48;;
49840;SDS011;35738;49.890;5.930;2023-04-24T03:30:18;22.38;;;15.95;;
49840;SDS011;35738;49.890;5.930;2023-04-24T03:32:45;26.35;;;15.88;;
49840;SDS011;35738;49.890;5.930;2023-04-24T03:35:12;25.58;;;15.82;;
49840;SDS011;35738;49.890;5.930;2023-04-24T03:37:38;23.63;;;15.88;;
49840;SDS011;35738;49.890;5.930;2023-04-24T03:40:05;20.35;;;13.70;;
49840;SDS011;35738;49.890;5.930;2023-04-24T03:42:33;25.83;;;15.82;;
49840;SDS011;35738;49.890;5.930;2023-04-24T03:45:01;20.83;;;13.83;;
49840;SDS011;35738;49.890;5.930;2023-04-24T03:47:28;19.33;;;14.05;;
49840;SDS011;35738;49.890;5.930;2023-04-24T03:49:55;20.85;;;14.25;;
49840;SDS011;35738;49.890;5.930;2023-04-24T03:52:22;20.52;;;14.45;;
49840;SDS011;35738;49.890;5.930;2023-04-24T03:54:49;24.05;;;14.30;;
49840;SDS011;35738;49.890;5.930;2023-04-24T03:57:16;19.40;;;12.13;;
49840;SDS011;35738;49.890;5.930;2023-04-24T03:59:43;18.98;;;13.10;;
49840;SDS011;35738;49.890;5.930;2023-04-24T04:02:10;15.80;;;11.75;;
49840;SDS011;35738;49.890;5.930;2023-04-24T04:04:36;19.45;;;12.20;;
49840;SDS011;35738;49.890;5.930;2023-04-24T04:07:03;20.55;;;12.23;;
49840;SDS011;35738;49.890;5.930;2023-04-24T04:09:31;19.70;;;12.07;;
49840;SDS011;35738;49.890;5.930;2023-04-24T04:11:58;16.85;;;11.95;;
49840;SDS011;35738;49.890;5.930;2023-04-24T04:14:27;18.02;;;12.55;;
49840;SDS011;35738;49.890;5.930;2023-04-24T04:16:53;17.42;;;11.48;;
49840;SDS011;35738;49.890;5.930;2023-04-24T04:19:20;15.85;;;10.35;;
49840;SDS011;35738;49.890;5.930;2023-04-24T04:21:47;17.85;;;11.48;;
49840;SDS011;35738;49.890;5.930;2023-04-24T04:24:19;17.00;;;10.02;;
49840;SDS011;35738;49.890;5.930;2023-04-24T04:26:50;15.00;;;11.18;;
49840;SDS011;35738;49.890;5.930;2023-04-24T04:29:18;17.23;;;10.90;;
49840;SDS011;35738;49.890;5.930;2023-04-24T04:31:44;19.52;;;11.88;;
49840;SDS011;35738;49.890;5.930;2023-04-24T04:34:11;18.52;;;10.45;;
49840;SDS011;35738;49.890;5.930;2023-04-24T04:36:38;15.50;;;11.23;;
49840;SDS011;35738;49.890;5.930;2023-04-24T04:39:06;19.25;;;11.85;;
49840;SDS011;35738;49.890;5.930;2023-04-24T04:41:33;18.95;;;13.20;;
49840;SDS011;35738;49.890;5.930;2023-04-24T04:44:05;19.03;;;12.77;;
49840;SDS011;35738;49.890;5.930;2023-04-24T04:46:31;18.60;;;12.80;;
49840;SDS011;35738;49.890;5.930;2023-04-24T04:49:03;17.40;;;12.30;;
49840;SDS011;35738;49.890;5.930;2023-04-24T04:51:30;20.38;;;13.20;;
49840;SDS011;35738;49.890;5.930;2023-04-24T04:53:57;19.77;;;13.27;;
49840;SDS011;35738;49.890;5.930;2023-04-24T04:56:23;19.10;;;13.20;;
49840;SDS011;35738;49.890;5.930;2023-04-24T04:58:50;21.05;;;13.70;;
49840;SDS011;35738;49.890;5.930;2023-04-24T05:01:17;18.85;;;12.85;;
49840;SDS011;35738;49.890;5.930;2023-04-24T05:03:45;19.17;;;13.27;;
49840;SDS011;35738;49.890;5.930;2023-04-24T05:06:12;16.75;;;12.63;;
49840;SDS011;35738;49.890;5.930;2023-04-24T05:08:38;19.48;;;13.20;;
49840;SDS011;35738;49.890;5.930;2023-04-24T05:11:05;18.45;;;12.07;;
49840;SDS011;35738;49.890;5.930;2023-04-24T05:13:32;15.90;;;10.77;;
49840;SDS011;35738;49.890;5.930;2023-04-24T05:16:06;16.83;;;11.95;;
49840;SDS011;35738;49.890;5.930;2023-04-24T05:18:33;18.02;;;12.10;;
49840;SDS011;35738;49.890;5.930;2023-04-24T05:21:00;15.05;;;10.57;;
49840;SDS011;35738;49.890;5.930;2023-04-24T05:23:27;18.00;;;12.13;;
49840;SDS011;35738;49.890;5.930;2023-04-24T05:25:53;15.07;;;10.15;;
49840;SDS011;35738;49.890;5.930;2023-04-24T05:28:20;17.50;;;11.73;;
49840;SDS011;35738;49.890;5.930;2023-04-24T05:30:47;17.00;;;11.10;;
49840;SDS011;35738;49.890;5.930;2023-04-24T05:33:13;18.30;;;11.73;;
49840;SDS011;35738;49.890;5.930;2023-04-24T05:35:41;17.45;;;11.93;;
49840;SDS011;35738;49.890;5.930;2023-04-24T05:38:13;18.10;;;12.25;;
49840;SDS011;35738;49.890;5.930;2023-04-24T05:40:39;20.20;;;12.23;;
49840;SDS011;35738;49.890;5.930;2023-04-24T05:43:06;16.35;;;12.00;;
49840;SDS011;35738;49.890;5.930;2023-04-24T05:45:32;20.05;;;12.80;;
49840;SDS011;35738;49.890;5.930;2023-04-24T05:48:02;23.90;;;12.80;;
49840;SDS011;35738;49.890;5.930;2023-04-24T05:50:29;18.10;;;12.57;;
49840;SDS011;35738;49.890;5.930;2023-04-24T05:52:56;17.48;;;11.90;;
49840;SDS011;35738;49.890;5.930;2023-04-24T05:55:28;18.13;;;11.77;;
49840;SDS011;35738;49.890;5.930;2023-04-24T05:57:54;15.50;;;11.87;;
49840;SDS011;35738;49.890;5.930;2023-04-24T06:00:21;20.77;;;12.00;;
49840;SDS011;35738;49.890;5.930;2023-04-24T06:02:47;17.38;;;12.02;;
49840;SDS011;35738;49.890;5.930;2023-04-24T06:05:15;17.33;;;10.65;;
49840;SDS011;35738;49.890;5.930;2023-04-24T06:07:42;15.73;;;10.93;;
49840;SDS011;35738;49.890;5.930;2023-04-24T06:10:09;16.40;;;11.43;;
49840;SDS011;35738;49.890;5.930;2023-04-24T06:12:36;14.83;;;10.13;;
49840;SDS011;35738;49.890;5.930;2023-04-24T06:15:03;14.35;;;10.15;;
49840;SDS011;35738;49.890;5.930;2023-04-24T06:17:30;16.77;;;10.80;;
49840;SDS011;35738;49.890;5.930;2023-04-24T06:19:57;15.73;;;9.82;;
49840;SDS011;35738;49.890;5.930;2023-04-24T06:22:24;17.33;;;9.65;;
49840;SDS011;35738;49.890;5.930;2023-04-24T06:24:50;15.98;;;8.95;;
49840;SDS011;35738;49.890;5.930;2023-04-24T06:27:17;15.43;;;9.85;;
49840;SDS011;35738;49.890;5.930;2023-04-24T06:29:43;12.93;;;9.00;;
49840;SDS011;35738;49.890;5.930;2023-04-24T06:32:10;12.02;;;8.82;;
49840;SDS011;35738;49.890;5.930;2023-04-24T06:34:37;12.23;;;9.00;;
49840;SDS011;35738;49.890;5.930;2023-04-24T06:37:03;10.57;;;8.30;;
49840;SDS011;35738;49.890;5.930;2023-04-24T06:39:31;9.75;;;7.03;;
49840;SDS011;35738;49.890;5.930;2023-04-24T08:50:35;8.88;;;6.40;;
49840;SDS011;35738;49.890;5.930;2023-04-24T08:53:54;7.97;;;6.20;;
49840;SDS011;35738;49.890;5.930;2023-04-24T08:56:21;10.13;;;7.18;;
49840;SDS011;35738;49.890;5.930;2023-04-24T08:58:50;9.02;;;6.07;;
49840;SDS011;35738;49.890;5.930;2023-04-24T09:01:20;10.02;;;6.22;;
49840;SDS011;35738;49.890;5.930;2023-04-24T09:03:48;9.45;;;6.20;;
49840;SDS011;35738;49.890;5.930;2023-04-24T09:06:17;11.23;;;6.85;;
49840;SDS011;35738;49.890;5.930;2023-04-24T09:08:45;8.40;;;6.47;;
49840;SDS011;35738;49.890;5.930;2023-04-24T09:11:13;7.82;;;5.93;;
49840;SDS011;35738;49.890;5.930;2023-04-24T09:13:39;9.05;;;6.45;;
49840;SDS011;35738;49.890;5.930;2023-04-24T09:16:07;10.05;;;6.75;;
49840;SDS011;35738;49.890;5.930;2023-04-24T09:18:36;9.45;;;6.75;;
49840;SDS011;35738;49.890;5.930;2023-04-24T09:21:03;7.60;;;6.32;;
49840;SDS011;35738;49.890;5.930;2023-04-24T09:23:33;11.45;;;6.63;;
49840;SDS011;35738;49.890;5.930;2023-04-24T09:26:00;10.65;;;7.22;;
49840;SDS011;35738;49.890;5.930;2023-04-24T09:28:32;12.07;;;8.00;;
49840;SDS011;35738;49.890;5.930;2023-04-24T09:31:13;13.05;;;7.70;;
49840;SDS011;35738;49.890;5.930;2023-04-24T09:33:57;9.10;;;6.50;;
49840;SDS011;35738;49.890;5.930;2023-04-24T09:36:35;10.00;;;7.18;;
49840;SDS011;35738;49.890;5.930;2023-04-24T09:39:10;10.95;;;7.00;;
49840;SDS011;35738;49.890;5.930;2023-04-24T09:41:52;11.88;;;8.30;;
49840;SDS011;35738;49.890;5.930;2023-04-24T09:44:20;12.80;;;8.27;;
49840;SDS011;35738;49.890;5.930;2023-04-24T09:46:49;10.75;;;7.50;;
49840;SDS011;35738;49.890;5.930;2023-04-24T09:49:27;11.55;;;7.78;;
49840;SDS011;35738;49.890;5.930;2023-04-24T09:52:08;11.13;;;7.93;;
49840;SDS011;35738;49.890;5.930;2023-04-24T09:54:36;11.98;;;7.47;;
49840;SDS011;35738;49.890;5.930;2023-04-24T09:57:03;9.02;;;6.35;;
49840;SDS011;35738;49.890;5.930;2023-04-24T09:59:31;11.23;;;6.45;;
49840;SDS011;35738;49.890;5.930;2023-04-24T10:01:59;9.77;;;6.25;;
49840;SDS011;35738;49.890;5.930;2023-04-24T10:04:26;7.00;;;6.07;;
49840;SDS011;35738;49.890;5.930;2023-04-24T10:06:56;10.30;;;6.57;;
49840;SDS011;35738;49.890;5.930;2023-04-24T10:09:24;10.65;;;6.75;;
49840;SDS011;35738;49.890;5.930;2023-04-24T10:11:52;11.57;;;6.65;;
49840;SDS011;35738;49.890;5.930;2023-04-24T10:14:21;8.75;;;6.57;;
49840;SDS011;35738;49.890;5.930;2023-04-24T10:16:49;8.73;;;6.05;;
49840;SDS011;35738;49.890;5.930;2023-04-24T10:19:19;11.88;;;6.80;;
49840;SDS011;35738;49.890;5.930;2023-04-24T10:21:46;11.00;;;6.45;;
49840;SDS011;35738;49.890;5.930;2023-04-24T10:24:13;8.90;;;6.50;;
49840;SDS011;35738;49.890;5.930;2023-04-24T10:26:42;7.70;;;6.00;;
49840;SDS011;35738;49.890;5.930;2023-04-24T10:29:10;7.55;;;5.60;;
49840;SDS011;35738;49.890;5.930;2023-04-24T10:31:39;6.75;;;5.43;;
49840;SDS011;35738;49.890;5.930;2023-04-24T10:34:06;9.73;;;6.13;;
49840;SDS011;35738;49.890;5.930;2023-04-24T10:36:36;8.38;;;5.55;;
49840;SDS011;35738;49.890;5.930;2023-04-24T10:39:24;8.10;;;5.38;;
49840;SDS011;35738;49.890;5.930;2023-04-24T10:41:54;13.07;;;8.35;;
49840;SDS011;35738;49.890;5.930;2023-04-24T10:44:24;11.00;;;7.00;;
49840;SDS011;35738;49.890;5.930;2023-04-24T10:46:54;8.18;;;5.88;;
49840;SDS011;35738;49.890;5.930;2023-04-24T10:49:28;9.88;;;6.18;;
49840;SDS011;35738;49.890;5.930;2023-04-24T10:51:59;10.63;;;6.18;;
49840;SDS011;35738;49.890;5.930;2023-04-24T10:59:46;13.48;;;6.80;;
49840;SDS011;35738;49.890;5.930;2023-04-24T11:02:16;10.75;;;6.97;;
49840;SDS011;35738;49.890;5.930;2023-04-24T11:04:44;10.75;;;6.82;;
49840;SDS011;35738;49.890;5.930;2023-04-24T11:07:12;13.52;;;7.43;;
49840;SDS011;35738;49.890;5.930;2023-04-24T11:09:39;9.38;;;6.85;;
49840;SDS011;35738;49.890;5.930;2023-04-24T11:12:10;9.98;;;6.63;;
49840;SDS011;35738;49.890;5.930;2023-04-24T11:17:34;11.23;;;6.93;;
49840;SDS011;35738;49.890;5.930;2023-04-24T11:20:04;9.32;;;7.20;;
49840;SDS011;35738;49.890;5.930;2023-04-24T11:22:58;12.40;;;7.15;;
49840;SDS011;35738;49.890;5.930;2023-04-24T11:25:30;9.52;;;6.68;;
49840;SDS011;35738;49.890;5.930;2023-04-24T11:28:05;10.40;;;7.28;;
49840;SDS011;35738;49.890;5.930;2023-04-24T11:30:32;11.95;;;6.90;;
49840;SDS011;35738;49.890;5.930;2023-04-24T11:33:03;14.90;;;7.55;;
49840;SDS011;35738;49.890;5.930;2023-04-24T11:35:34;10.13;;;6.95;;
49840;SDS011;35738;49.890;5.930;2023-04-24T11:38:03;9.98;;;6.95;;
49840;SDS011;35738;49.890;5.930;2023-04-24T11:40:34;11.23;;;6.75;;
49840;SDS011;35738;49.890;5.930;2023-04-24T11:43:03;10.30;;;6.50;;
49840;SDS011;35738;49.890;5.930;2023-04-24T11:45:33;7.95;;;6.47;;
49840;SDS011;35738;49.890;5.930;2023-04-24T11:48:00;8.55;;;6.28;;
49840;SDS011;35738;49.890;5.930;2023-04-24T11:50:27;8.68;;;6.40;;
49840;SDS011;35738;49.890;5.930;2023-04-24T11:52:55;9.05;;;7.10;;
49840;SDS011;35738;49.890;5.930;2023-04-24T11:55:24;9.18;;;6.97;;
49840;SDS011;35738;49.890;5.930;2023-04-24T11:57:56;11.13;;;7.60;;
49840;SDS011;35738;49.890;5.930;2023-04-24T12:00:27;9.75;;;6.55;;
49840;SDS011;35738;49.890;5.930;2023-04-24T12:03:05;9.00;;;7.03;;
49840;SDS011;35738;49.890;5.930;2023-04-24T12:05:34;9.48;;;7.13;;
49840;SDS011;35738;49.890;5.930;2023-04-24T12:08:01;12.15;;;6.97;;
49840;SDS011;35738;49.890;5.930;2023-04-24T12:10:29;12.20;;;6.68;;
49840;SDS011;35738;49.890;5.930;2023-04-24T12:12:57;11.43;;;7.85;;
49840;SDS011;35738;49.890;5.930;2023-04-24T12:15:25;10.65;;;7.60;;
49840;SDS011;35738;49.890;5.930;2023-04-24T12:17:53;10.90;;;7.47;;
49840;SDS011;35738;49.890;5.930;2023-04-24T12:20:28;10.77;;;7.65;;
49840;SDS011;35738;49.890;5.930;2023-04-24T12:22:56;9.55;;;7.13;;
49840;SDS011;35738;49.890;5.930;2023-04-24T12:25:28;11.02;;;8.05;;
49840;SDS011;35738;49.890;5.930;2023-04-24T12:30:33;9.75;;;7.05;;
49840;SDS011;35738;49.890;5.930;2023-04-24T12:33:02;9.20;;;7.18;;
49840;SDS011;35738;49.890;5.930;2023-04-24T12:35:31;11.60;;;7.45;;
49840;SDS011;35738;49.890;5.930;2023-04-24T12:38:06;11.13;;;7.53;;
49840;SDS011;35738;49.890;5.930;2023-04-24T12:40:36;12.07;;;7.25;;
49840;SDS011;35738;49.890;5.930;2023-04-24T12:43:12;10.00;;;7.50;;
49840;SDS011;35738;49.890;5.930;2023-04-24T12:45:43;10.93;;;7.60;;
49840;SDS011;35738;49.890;5.930;2023-04-24T12:48:11;10.70;;;7.50;;
49840;SDS011;35738;49.890;5.930;2023-04-24T12:50:41;12.32;;;7.45;;
49840;SDS011;35738;49.890;5.930;2023-04-24T12:53:12;14.63;;;9.13;;
49840;SDS011;35738;49.890;5.930;2023-04-24T12:55:38;11.40;;;8.10;;
49840;SDS011;35738;49.890;5.930;2023-04-24T12:58:07;11.45;;;8.50;;
49840;SDS011;35738;49.890;5.930;2023-04-24T13:00:34;13.40;;;7.57;;
49840;SDS011;35738;49.890;5.930;2023-04-24T13:03:01;9.48;;;8.10;;
49840;SDS011;35738;49.890;5.930;2023-04-24T13:39:11;8.52;;;6.88;;
49840;SDS011;35738;49.890;5.930;2023-04-24T13:41:41;9.45;;;6.60;;
49840;SDS011;35738;49.890;5.930;2023-04-24T13:44:08;10.82;;;7.57;;
49840;SDS011;35738;49.890;5.930;2023-04-24T13:46:35;8.88;;;6.85;;
49840;SDS011;35738;49.890;5.930;2023-04-24T13:49:02;10.45;;;7.13;;
49840;SDS011;35738;49.890;5.930;2023-04-24T13:51:29;8.75;;;6.45;;
49840;SDS011;35738;49.890;5.930;2023-04-24T13:53:56;9.10;;;6.60;;
49840;SDS011;35738;49.890;5.930;2023-04-24T13:56:23;8.18;;;6.40;;
49840;SDS011;35738;49.890;5.930;2023-04-24T13:58:49;7.95;;;5.80;;
49840;SDS011;35738;49.890;5.930;2023-04-24T14:01:17;7.53;;;6.25;;
49840;SDS011;35738;49.890;5.930;2023-04-24T14:03:44;9.43;;;6.50;;
49840;SDS011;35738;49.890;5.930;2023-04-24T14:06:11;7.40;;;6.25;;
49840;SDS011;35738;49.890;5.930;2023-04-24T14:08:38;8.95;;;6.60;;
49840;SDS011;35738;49.890;5.930;2023-04-24T14:11:05;7.63;;;5.95;;
49840;SDS011;35738;49.890;5.930;2023-04-24T14:16:04;7.47;;;5.68;;
49840;SDS011;35738;49.890;5.930;2023-04-24T14:18:31;7.15;;;5.60;;
49840;SDS011;35738;49.890;5.930;2023-04-24T14:20:57;7.25;;;5.53;;
49840;SDS011;35738;49.890;5.930;2023-04-24T14:23:24;7.05;;;5.80;;
49840;SDS011;35738;49.890;5.930;2023-04-24T14:25:50;8.38;;;5.82;;
49840;SDS011;35738;49.890;5.930;2023-04-24T14:28:19;7.03;;;5.78;;
49840;SDS011;35738;49.890;5.930;2023-04-24T14:30:46;8.40;;;5.95;;
49840;SDS011;35738;49.890;5.930;2023-04-24T14:33:13;5.45;;;4.95;;
49840;SDS011;35738;49.890;5.930;2023-04-24T14:35:41;7.50;;;5.32;;
49840;SDS011;35738;49.890;5.930;2023-04-24T14:38:09;7.18;;;5.20;;
49840;SDS011;35738;49.890;5.930;2023-04-24T14:40:36;6.85;;;5.65;;
49840;SDS011;35738;49.890;5.930;2023-04-24T14:43:23;7.05;;;5.90;;
49840;SDS011;35738;49.890;5.930;2023-04-24T14:45:49;7.72;;;5.78;;
49840;SDS011;35738;49.890;5.930;2023-04-24T14:48:16;6.80;;;6.10;;
49840;SDS011;35738;49.890;5.930;2023-04-24T14:50:43;7.63;;;6.00;;
49840;SDS011;35738;49.890;5.930;2023-04-24T14:53:11;7.55;;;5.85;;
49840;SDS011;35738;49.890;5.930;2023-04-24T14:55:37;7.40;;;5.82;;
49840;SDS011;35738;49.890;5.930;2023-04-24T14:58:04;7.80;;;5.70;;
49840;SDS011;35738;49.890;5.930;2023-04-24T15:00:31;8.35;;;6.22;;
49840;SDS011;35738;49.890;5.930;2023-04-24T15:02:58;8.55;;;5.82;;
49840;SDS011;35738;49.890;5.930;2023-04-24T15:05:25;6.90;;;5.78;;
49840;SDS011;35738;49.890;5.930;2023-04-24T15:07:52;7.43;;;5.55;;
49840;SDS011;35738;49.890;5.930;2023-04-24T15:10:18;6.05;;;4.88;;
49840;SDS011;35738;49.890;5.930;2023-04-24T15:12:49;6.72;;;5.90;;
49840;SDS011;35738;49.890;5.930;2023-04-24T15:15:16;6.07;;;5.47;;
49840;SDS011;35738;49.890;5.930;2023-04-24T15:17:43;6.47;;;5.45;;
49840;SDS011;35738;49.890;5.930;2023-04-24T15:20:09;7.75;;;5.28;;
49840;SDS011;35738;49.890;5.930;2023-04-24T15:22:36;8.15;;;5.82;;
49840;SDS011;35738;49.890;5.930;2023-04-24T15:25:03;6.32;;;4.93;;
49840;SDS011;35738;49.890;5.930;2023-04-24T15:27:38;6.45;;;4.85;;
49840;SDS011;35738;49.890;5.930;2023-04-24T15:30:07;5.57;;;4.88;;
49840;SDS011;35738;49.890;5.930;2023-04-24T15:32:35;6.05;;;5.18;;
49840;SDS011;35738;49.890;5.930;2023-04-24T15:35:02;7.00;;;5.93;;
49840;SDS011;35738;49.890;5.930;2023-04-24T15:37:35;6.85;;;6.00;;
49840;SDS011;35738;49.890;5.930;2023-04-24T15:40:02;8.55;;;6.05;;
49840;SDS011;35738;49.890;5.930;2023-04-24T15:42:32;11.63;;;6.38;;
49840;SDS011;35738;49.890;5.930;2023-04-24T15:44:59;6.47;;;5.85;;
49840;SDS011;35738;49.890;5.930;2023-04-24T15:47:26;6.53;;;5.70;;
49840;SDS011;35738;49.890;5.930;2023-04-24T15:49:52;7.72;;;6.00;;
49840;SDS011;35738;49.890;5.930;2023-04-24T15:52:19;7.45;;;6.28;;
49840;SDS011;35738;49.890;5.930;2023-04-24T15:54:46;8.50;;;6.93;;
49840;SDS011;35738;49.890;5.930;2023-04-24T15:57:15;9.75;;;6.85;;
49840;SDS011;35738;49.890;5.930;2023-04-24T15:59:43;9.18;;;6.85;;
49840;SDS011;35738;49.890;5.930;2023-04-24T16:02:11;8.15;;;6.60;;
49840;SDS011;35738;49.890;5.930;2023-04-24T16:04:46;8.48;;;6.22;;
49840;SDS011;35738;49.890;5.930;2023-04-24T16:07:14;8.38;;;6.05;;
49840;SDS011;35738;49.890;5.930;2023-04-24T16:09:43;7.97;;;6.25;;
49840;SDS011;35738;49.890;5.930;2023-04-24T16:12:10;7.97;;;5.78;;
49840;SDS011;35738;49.890;5.930;2023-04-24T16:14:37;7.90;;;5.88;;
49840;SDS011;35738;49.890;5.930;2023-04-24T16:17:04;6.22;;;5.63;;
49840;SDS011;35738;49.890;5.930;2023-04-24T16:19:32;6.43;;;5.68;;
49840;SDS011;35738;49.890;5.930;2023-04-24T16:22:00;8.50;;;5.97;;
49840;SDS011;35738;49.890;5.930;2023-04-24T16:24:28;6.68;;;5.72;;
49840;SDS011;35738;49.890;5.930;2023-04-24T16:26:55;6.60;;;5.95;;
49840;SDS011;35738;49.890;5.930;2023-04-24T16:29:29;7.47;;;5.78;;
49840;SDS011;35738;49.890;5.930;2023-04-24T16:31:56;9.23;;;6.20;;
49840;SDS011;35738;49.890;5.930;2023-04-24T16:34:23;7.13;;;6.15;;
49840;SDS011;35738;49.890;5.930;2023-04-24T16:36:49;8.23;;;6.50;;
49840;SDS011;35738;49.890;5.930;2023-04-24T16:39:16;7.55;;;5.45;;
49840;SDS011;35738;49.890;5.930;2023-04-24T16:41:44;5.35;;;4.22;;
49840;SDS011;35738;49.890;5.930;2023-04-24T16:44:11;3.38;;;2.97;;
49840;SDS011;35738;49.890;5.930;2023-04-24T16:46:38;5.35;;;3.83;;
49840;SDS011;35738;49.890;5.930;2023-04-24T16:49:05;6.53;;;4.80;;
49840;SDS011;35738;49.890;5.930;2023-04-24T16:51:33;7.65;;;6.28;;
49840;SDS011;35738;49.890;5.930;2023-04-24T16:54:00;8.75;;;5.80;;
49840;SDS011;35738;49.890;5.930;2023-04-24T16:56:27;8.10;;;5.65;;
49840;SDS011;35738;49.890;5.930;2023-04-24T16:58:53;7.35;;;5.55;;
49840;SDS011;35738;49.890;5.930;2023-04-24T17:01:28;6.40;;;5.40;;
49840;SDS011;35738;49.890;5.930;2023-04-24T17:03:55;7.93;;;5.55;;
49840;SDS011;35738;49.890;5.930;2023-04-24T17:06:22;9.02;;;5.93;;
49840;SDS011;35738;49.890;5.930;2023-04-24T17:08:52;9.00;;;5.90;;
49840;SDS011;35738;49.890;5.930;2023-04-24T17:11:19;8.73;;;6.00;;
49840;SDS011;35738;49.890;5.930;2023-04-24T17:13:52;7.20;;;5.18;;
49840;SDS011;35738;49.890;5.930;2023-04-24T17:16:27;6.93;;;5.07;;
49840;SDS011;35738;49.890;5.930;2023-04-24T17:22:05;7.50;;;4.75;;
49840;SDS011;35738;49.890;5.930;2023-04-24T17:24:33;6.80;;;4.65;;
49840;SDS011;35738;49.890;5.930;2023-04-24T17:27:00;6.22;;;4.78;;
49840;SDS011;35738;49.890;5.930;2023-04-24T17:29:43;5.65;;;4.07;;
49840;SDS011;35738;49.890;5.930;2023-04-24T17:32:12;5.07;;;4.50;;
49840;SDS011;35738;49.890;5.930;2023-04-24T17:34:39;5.68;;;4.15;;
49840;SDS011;35738;49.890;5.930;2023-04-24T17:37:05;5.00;;;4.10;;
49840;SDS011;35738;49.890;5.930;2023-04-24T17:39:32;6.97;;;4.63;;
49840;SDS011;35738;49.890;5.930;2023-04-24T17:41:58;7.70;;;4.55;;
49840;SDS011;35738;49.890;5.930;2023-04-24T17:44:28;4.82;;;4.32;;
49840;SDS011;35738;49.890;5.930;2023-04-24T17:46:55;5.53;;;4.50;;